2B2 weather

Plum Island Airport
Newburyport, Massachusetts, United States

Public forecast

Using degrees Fahrenheit for public forecast. Weather courtesy of forecast.io.

METAR (pilot weather report)

Closest report is Beverly Municipal Airport, 13.1 nm (24.3 km) SSW. Retrieved 2019/09/23 04:53 UTC (60 minutes ago):

KBVY 230453Z AUTO 21008KT 10SM CLR 21/16 A2993 RMK AO2 SLP128 T02110156 402940128 $

TAF (pilot weather forecast)

Forecast is more than 12 hours old.

Closest forecast is Portsmouth International at Pease Airport, 16.9 nm (31.4 km) N. Retrieved 2019/09/22 00:22 UTC (1 day ago):

TAF KPSM 222320Z 2300/2324 22005KT P6SM FEW100 BKN250 FM231200 24008KT P6SM BKN250 FM231600 24013G20KT P6SM SCT100 BKN250 FM232300 22010G17KT P6SM -SHRA BKN040